Time;durP1;ratioP1;P1;durP2;ratioP2;P2;SDS_P1;SDS_P2;PMS_P1;PMS_P2;Temp;Humidity;BMP_temperature;BMP_pressure;BME280_temperature;BME280_humidity;BME280_pressure;Samples;Min_cycle;Max_cycle;Signal;HPM_P1;HPM_P2
2023/10/24 00:00:58;;;;;;;13.23;8.40;;;;;;;;;;5120087;27;20038;-83
2023/10/24 00:03:24;;;;;;;13.73;9.02;;;;;;;;;;5119773;27;20046;-82
2023/10/24 00:05:51;;;;;;;13.38;8.85;;;;;;;;;;5136738;27;20110;-84
2023/10/24 00:08:17;;;;;;;13.48;8.88;;;10.70;82.40;;;;;;5119285;27;20518;-83
2023/10/24 00:10:43;;;;;;;14.50;9.13;;;10.30;83.40;;;;;;5136651;27;20045;-82
2023/10/24 00:13:09;;;;;;;13.10;8.18;;;;;;;;;;5136710;27;20050;-82
2023/10/24 00:15:35;;;;;;;13.30;8.52;;;;;;;;;;5119622;27;20487;-82
2023/10/24 00:18:01;;;;;;;12.13;8.35;;;;;;;;;;5118858;27;20050;-85
2023/10/24 00:20:27;;;;;;;14.50;7.90;;;;;;;;;;5098824;27;20476;-82
2023/10/24 00:22:53;;;;;;;14.02;7.95;;;10.40;84.00;;;;;;5098999;27;20039;-82
2023/10/24 00:25:19;;;;;;;11.80;8.45;;;;;;;;;;5115692;27;20050;-81
2023/10/24 00:27:46;;;;;;;14.85;8.65;;;;;;;;;;5117182;27;20519;-82
2023/10/24 00:30:12;;;;;;;16.92;7.75;;;;;;;;;;5154701;27;20447;-83
2023/10/24 00:32:38;;;;;;;15.52;8.02;;;;;;;;;;5119145;27;20095;-83
2023/10/24 00:35:04;;;;;;;14.18;8.43;;;;;;;;;;5119544;27;20479;-82
2023/10/24 00:37:30;;;;;;;13.57;9.05;;;;;;;;;;5119102;27;20034;-83
2023/10/24 00:39:56;;;;;;;12.38;8.45;;;;;;;;;;5134388;27;20059;-84
2023/10/24 00:42:22;;;;;;;16.13;9.02;;;;;;;;;;5115929;27;20043;-85
2023/10/24 00:44:48;;;;;;;15.40;9.45;;;;;;;;;;5115820;27;20122;-83
2023/10/24 00:47:15;;;;;;;13.55;8.50;;;;;;;;;;5098654;27;20082;-84
2023/10/24 00:49:41;;;;;;;17.55;10.60;;;;;;;;;;5132214;27;20039;-82
2023/10/24 00:52:07;;;;;;;11.90;8.45;;;;;;;;;;5135914;27;20049;-84
2023/10/24 00:54:34;;;;;;;11.68;8.40;;;;;;;;;;5154557;27;20042;-81
2023/10/24 00:57:01;;;;;;;12.55;8.32;;;;;;;;;;5136376;27;20050;-84
2023/10/24 00:59:28;;;;;;;13.15;9.05;;;;;;;;;;5138902;27;20042;-83
2023/10/24 01:01:54;;;;;;;12.48;7.95;;;;;;;;;;5133712;27;20088;-83
2023/10/24 01:04:22;;;;;;;12.27;8.20;;;10.40;66.50;;;;;;5133327;27;20043;-80
2023/10/24 01:06:48;;;;;;;12.50;9.40;;;;;;;;;;5115199;27;20095;-82
2023/10/24 01:09:14;;;;;;;21.48;8.68;;;;;;;;;;5127338;27;20034;-83
2023/10/24 01:11:40;;;;;;;15.52;9.23;;;;;;;;;;5118089;27;20055;-80
2023/10/24 01:14:06;;;;;;;14.50;9.88;;;;;;;;;;5154143;27;20046;-82
2023/10/24 01:16:42;;;;;;;12.63;8.55;;;;;;;;;;5154046;27;20039;-83
2023/10/24 01:19:08;;;;;;;12.48;8.70;;;;;;;;;;5123671;27;20050;-82
2023/10/24 01:21:34;;;;;;;12.55;9.07;;;;;;;;;;5115183;27;20043;-82
2023/10/24 01:24:00;;;;;;;13.32;8.88;;;;;;;;;;5098177;27;20051;-84
2023/10/24 01:26:27;;;;;;;16.63;9.05;;;;;;;;;;5098243;27;20047;-83
2023/10/24 01:28:53;;;;;;;17.27;9.70;;;;;;;;;;5106936;27;20064;-81
2023/10/24 01:31:19;;;;;;;14.38;9.05;;;;;;;;;;5135218;27;20046;-81
2023/10/24 01:33:45;;;;;;;11.75;8.65;;;10.40;90.60;;;;;;5135081;27;20050;-85
2023/10/24 01:36:11;;;;;;;16.25;8.85;;;;;;;;;;5101586;27;20047;-84
2023/10/24 01:38:37;;;;;;;20.35;9.82;;;;;;;;;;5128456;27;20518;-84
2023/10/24 01:41:03;;;;;;;13.40;9.43;;;;;;;;;;5114586;28;20055;-82
2023/10/24 01:43:29;;;;;;;15.95;10.05;;;;;;;;;;5097683;28;20122;-85
2023/10/24 01:45:55;;;;;;;14.50;8.02;;;;;;;;;;5114779;28;20054;-85
2023/10/24 01:48:21;;;;;;;13.52;10.02;;;;;;;;;;5142843;27;20049;-86
2023/10/24 01:50:47;;;;;;;15.38;10.40;;;;;;;;;;5114821;28;20051;-86
2023/10/24 01:53:13;;;;;;;14.25;9.93;;;;;;;;;;5099053;28;20099;-85
2023/10/24 01:55:39;;;;;;;13.02;9.38;;;;;;;;;;5098036;28;20092;-86
2023/10/24 01:58:06;;;;;;;13.98;8.52;;;;;;;;;;5098821;27;20435;-84
2023/10/24 02:00:32;;;;;;;11.93;8.88;;;;;;;;;;5134978;27;20034;-86
2023/10/24 02:02:58;;;;;;;17.13;10.40;;;;;;;;;;5135274;27;20081;-85
2023/10/24 02:05:24;;;;;;;17.77;11.40;;;;;;;;;;5135263;27;20042;-87
2023/10/24 02:07:50;;;;;;;14.30;9.57;;;;;;;;;;5101645;27;20094;-88
2023/10/24 02:10:16;;;;;;;17.98;11.25;;;;;;;;;;5133223;27;20512;-84
2023/10/24 02:12:42;;;;;;;16.25;9.40;;;;;;;;;;5114308;28;20039;-85
2023/10/24 02:15:09;;;;;;;15.77;10.65;;;;;;;;;;5098211;27;20498;-82
2023/10/24 02:17:35;;;;;;;18.88;10.00;;;;;;;;;;5101831;27;20110;-87
2023/10/24 02:20:02;;;;;;;18.05;10.13;;;;;;;;;;5116916;27;20122;-85
2023/10/24 02:22:28;;;;;;;13.85;9.55;;;;;;;;;;5139013;27;20046;-84
2023/10/24 02:24:54;;;;;;;13.88;9.38;;;;;;;;;;5121878;27;20398;-82
2023/10/24 02:27:20;;;;;;;17.50;10.60;;;;;;;;;;5120820;27;20047;-89
2023/10/24 02:29:46;;;;;;;13.48;9.80;;;;;;;;;;5124925;27;20118;-86
2023/10/24 02:32:12;;;;;;;12.98;9.40;;;;;;;;;;5118304;27;20047;-86
2023/10/24 02:34:38;;;;;;;13.02;8.95;;;10.40;94.90;;;;;;5118100;27;20068;-89
2023/10/24 02:37:04;;;;;;;15.95;9.77;;;;;;;;;;5101390;27;20039;-86
2023/10/24 02:39:30;;;;;;;16.75;9.45;;;;;;;;;;5111891;27;20042;-85
2023/10/24 02:41:56;;;;;;;13.07;9.27;;;;;;;;;;5157085;27;20082;-90
2023/10/24 02:44:22;;;;;;;12.15;9.52;;;;;;;;;;5138739;27;20458;-85
2023/10/24 02:46:48;;;;;;;12.50;8.77;;;;;;;;;;5137111;27;20043;-86
2023/10/24 02:49:14;;;;;;;14.32;9.65;;;;;;;;;;5131368;27;20035;-81
2023/10/24 02:51:40;;;;;;;11.90;9.27;;;;;;;;;;5120865;27;20098;-83
2023/10/24 02:54:07;;;;;;;15.73;9.57;;;;;;;;;;5121272;27;20089;-88
2023/10/24 02:56:33;;;;;;;16.38;9.15;;;;;;;;;;5138711;27;20051;-81
2023/10/24 02:58:59;;;;;;;14.95;9.35;;;;;;;;;;5110502;27;20047;-81
2023/10/24 03:01:26;;;;;;;11.05;8.40;;;;;;;;;;5136397;27;20039;-85
2023/10/24 03:03:53;;;;;;;10.98;7.95;;;;;;;;;;5135910;27;20078;-83
2023/10/24 03:06:19;;;;;;;10.80;8.23;;;;;;;;;;5136069;27;20051;-82
2023/10/24 03:08:45;;;;;;;9.70;7.60;;;10.50;97.30;;;;;;5130544;27;20038;-86
2023/10/24 03:11:11;;;;;;;10.27;8.07;;;;;;;;;;5120726;27;20054;-83
2023/10/24 03:13:37;;;;;;;11.07;7.30;;;;;;;;;;5138089;27;20130;-82
2023/10/24 03:16:04;;;;;;;14.18;8.15;;;10.60;87.10;;;;;;5121078;27;20050;-85
2023/10/24 03:18:31;;;;;;;12.07;8.00;;;;;;;;;;5093575;27;20058;-84
2023/10/24 03:21:00;;;;;;;11.65;7.93;;;;;;;;;;5100439;27;20129;-88
2023/10/24 03:23:26;;;;;;;12.63;8.15;;;;;;;;;;5124432;27;20039;-82
2023/10/24 03:25:52;;;;;;;9.23;7.28;;;;;;;;;;5137598;27;20129;-79
2023/10/24 03:28:19;;;;;;;12.18;7.65;;;;;;;;;;5136717;27;20077;-83
2023/10/24 03:30:45;;;;;;;9.98;7.55;;;;;;;;;;5137507;27;20491;-81
2023/10/24 03:33:11;;;;;;;11.38;8.02;;;;;;;;;;5133227;27;20039;-78
2023/10/24 03:35:37;;;;;;;12.77;8.13;;;;;;;;;;5099994;27;20043;-82
2023/10/24 03:38:03;;;;;;;11.18;7.95;;;;;;;;;;5116873;27;20047;-80
2023/10/24 03:40:29;;;;;;;9.35;7.85;;;;;;;;;;5116730;27;20400;-80
2023/10/24 03:42:55;;;;;;;8.68;7.28;;;;;;;;;;5135436;27;20393;-78
2023/10/24 03:45:22;;;;;;;11.45;7.68;;;;;;;;;;5137204;27;20054;-81
2023/10/24 03:47:52;;;;;;;10.95;8.05;;;;;;;;;;5139823;27;20042;-85
2023/10/24 03:50:18;;;;;;;10.57;7.88;;;;;;;;;;5138350;27;20114;-82
2023/10/24 03:52:45;;;;;;;12.18;7.80;;;;;;;;;;5136665;27;20495;-87
2023/10/24 03:55:11;;;;;;;10.75;7.85;;;;;;;;;;5137038;27;20396;-88
2023/10/24 03:57:39;;;;;;;9.18;7.80;;;;;;;;;;5135050;27;20114;-81
2023/10/24 04:00:08;;;;;;;10.93;8.15;;;10.80;96.70;;;;;;5116935;27;20396;-87
2023/10/24 04:02:35;;;;;;;13.32;8.77;;;;;;;;;;5100205;27;20180;-82
2023/10/24 04:05:03;;;;;;;12.77;8.23;;;;;;;;;;5133771;27;20088;-87
2023/10/24 04:07:29;;;;;;;12.85;8.52;;;;;;;;;;5137135;27;20129;-86
2023/10/24 04:09:57;;;;;;;12.77;9.43;;;;;;;;;;5155962;27;20042;-84
2023/10/24 04:12:23;;;;;;;11.30;8.55;;;;;;;;;;5120165;27;20107;-87
2023/10/24 04:14:49;;;;;;;14.02;10.10;;;;;;;;;;5121761;27;20054;-90
2023/10/24 04:17:15;;;;;;;12.13;8.50;;;;;;;;;;5097459;27;20039;-86
2023/10/24 04:19:41;;;;;;;12.30;8.23;;;;;;;;;;5122631;27;20050;-89
2023/10/24 04:22:07;;;;;;;10.13;8.40;;;;;;;;;;5122542;27;20099;-86
2023/10/24 04:24:32;;;;;;;11.63;8.73;;;10.90;99.90;;;;;;5127618;27;20076;-86
2023/10/24 04:26:59;;;;;;;15.85;10.00;;;;;;;;;;5099670;27;20047;-82
2023/10/24 04:29:25;;;;;;;11.10;8.60;;;;;;;;;;5098810;27;20054;-86
2023/10/24 04:31:51;;;;;;;10.85;8.05;;;;;;;;;;5098918;27;20039;-87
2023/10/24 04:34:17;;;;;;;13.38;8.35;;;;;;;;;;5125091;27;20042;-86
2023/10/24 04:36:44;;;;;;;12.68;8.50;;;;;;;;;;5119367;27;20479;-85
2023/10/24 04:39:10;;;;;;;10.38;8.63;;;;;;;;;;5118900;27;20078;-81
2023/10/24 04:41:37;;;;;;;12.70;8.50;;;;;;;;;;5136879;27;20050;-86
2023/10/24 04:44:03;;;;;;;10.48;8.35;;;;;;;;;;5129224;27;20054;-85
2023/10/24 04:46:29;;;;;;;11.73;8.48;;;;;;;;;;5098889;27;20078;-89
2023/10/24 04:48:55;;;;;;;13.88;9.45;;;;;;;;;;5098826;27;20039;-89
2023/10/24 04:51:21;;;;;;;11.57;8.98;;;;;;;;;;5098567;27;20043;-85
2023/10/24 04:53:47;;;;;;;15.05;9.30;;;;;;;;;;5119662;27;20078;-83
2023/10/24 04:56:12;;;;;;;10.52;8.70;;;11.20;99.90;;;;;;5119259;27;20407;-82
2023/10/24 04:58:38;;;;;;;15.05;9.00;;;;;;;;;;5136123;27;20058;-82
2023/10/24 05:01:05;;;;;;;11.50;8.98;;;;;;;;;;5119272;27;20061;-82
2023/10/24 05:03:33;;;;;;;13.45;9.10;;;11.10;93.90;;;;;;5113378;27;20050;-84
2023/10/24 05:05:59;;;;;;;11.15;8.70;;;;;;;;;;5098515;27;20500;-82
2023/10/24 05:08:25;;;;;;;12.00;9.35;;;11.20;99.90;;;;;;5115209;27;20062;-88
2023/10/24 05:10:51;;;;;;;11.77;9.15;;;;;;;;;;5098444;27;20487;-81
2023/10/24 05:13:17;;;;;;;11.40;9.13;;;;;;;;;;5117533;27;20043;-81
2023/10/24 05:15:45;;;;;;;10.93;8.88;;;11.20;95.20;;;;;;5116146;27;20049;-84
2023/10/24 05:18:11;;;;;;;12.30;9.90;;;;;;;;;;5118254;27;20053;-82
2023/10/24 05:20:37;;;;;;;15.50;9.77;;;;;;;;;;5118401;27;20039;-81
2023/10/24 05:23:03;;;;;;;12.25;9.70;;;;;;;;;;5118366;27;20042;-79
2023/10/24 05:25:29;;;;;;;14.00;9.10;;;;;;;;;;5132754;27;20038;-83
2023/10/24 05:27:55;;;;;;;13.05;9.60;;;;;;;;;;5129097;27;20050;-84
2023/10/24 05:30:21;;;;;;;12.60;9.70;;;;;;;;;;5135250;27;20092;-86
2023/10/24 05:32:48;;;;;;;14.00;10.25;;;;;;;;;;5118300;27;20047;-78
2023/10/24 05:35:14;;;;;;;13.00;10.05;;;;;;;;;;5135405;27;20388;-87
2023/10/24 05:37:40;;;;;;;13.75;10.27;;;;;;;;;;5123652;27;20046;-85
2023/10/24 05:40:06;;;;;;;15.93;10.93;;;;;;;;;;5110989;27;20522;-87
2023/10/24 05:42:33;;;;;;;16.08;11.25;;;;;;;;;;5133277;27;20441;-85
2023/10/24 05:44:59;;;;;;;17.00;12.18;;;;;;;;;;5100797;27;20074;-82
2023/10/24 05:47:25;;;;;;;16.45;11.70;;;;;;;;;;5135109;27;20070;-89
2023/10/24 05:49:51;;;;;;;19.02;12.10;;;;;;;;;;5134453;27;20571;-89
2023/10/24 05:52:17;;;;;;;14.82;10.65;;;;;;;;;;5084870;28;20039;-88
2023/10/24 05:54:43;;;;;;;13.93;10.60;;;;;;;;;;5097418;28;20039;-85
2023/10/24 05:57:09;;;;;;;19.08;11.90;;;;;;;;;;5114258;28;20121;-78
2023/10/24 05:59:35;;;;;;;13.15;10.88;;;;;;;;;;5098545;27;20039;-85
2023/10/24 06:02:01;;;;;;;17.10;11.68;;;;;;;;;;5114411;28;20129;-79
2023/10/24 06:04:27;;;;;;;16.33;11.57;;;;;;;;;;5097578;28;20046;-79
2023/10/24 06:06:54;;;;;;;14.13;11.27;;;;;;;;;;5114792;28;20043;-84
2023/10/24 06:09:20;;;;;;;17.25;12.85;;;;;;;;;;5097270;27;20591;-86
2023/10/24 06:11:46;;;;;;;13.88;11.55;;;;;;;;;;5117391;27;20034;-88
2023/10/24 06:14:12;;;;;;;18.77;11.93;;;;;;;;;;5117928;27;20157;-80
2023/10/24 06:16:38;;;;;;;14.25;11.43;;;;;;;;;;5119829;28;20031;-87
2023/10/24 06:19:05;;;;;;;14.82;11.23;;;;;;;;;;5097335;28;20399;-79
2023/10/24 06:21:31;;;;;;;15.07;11.18;;;;;;;;;;5097680;28;20147;-86
2023/10/24 06:23:57;;;;;;;15.18;11.48;;;;;;;;;;5097857;28;20066;-86
2023/10/24 06:26:23;;;;;;;18.90;11.98;;;;;;;;;;5114362;28;20043;-89
2023/10/24 06:28:49;;;;;;;13.73;11.00;;;;;;;;;;5080285;28;20042;-84
2023/10/24 06:31:15;;;;;;;16.42;11.82;;;;;;;;;;5114359;28;20103;-83
2023/10/24 06:33:41;;;;;;;16.48;10.90;;;;;;;;;;5097131;28;20127;-83
2023/10/24 06:36:07;;;;;;;12.45;9.70;;;;;;;;;;5097486;28;20046;-84
2023/10/24 06:38:33;;;;;;;13.98;11.10;;;;;;;;;;5097520;28;20043;-83
2023/10/24 06:40:59;;;;;;;16.15;10.65;;;;;;;;;;5097048;28;20364;-83
2023/10/24 06:43:26;;;;;;;16.17;11.32;;;;;;;;;;5080302;28;20076;-81
2023/10/24 06:45:53;;;;;;;14.70;10.25;;;;;;;;;;5097018;28;20039;-82
2023/10/24 06:48:19;;;;;;;14.93;9.95;;;;;;;;;;5097242;28;20047;-84
2023/10/24 06:50:46;;;;;;;12.48;10.20;;;;;;;;;;5097088;28;20042;-85
2023/10/24 06:53:13;;;;;;;16.10;9.93;;;11.50;99.90;;;;;;5132442;28;20444;-82
2023/10/24 06:55:39;;;;;;;13.73;9.25;;;;;;;;;;5113951;28;20038;-83
2023/10/24 06:58:05;;;;;;;10.52;8.35;;;;;;;;;;5113661;28;20054;-80
2023/10/24 07:00:31;;;;;;;10.85;8.68;;;11.60;99.90;;;;;;5114055;27;20091;-82
2023/10/24 07:02:58;;;;;;;11.02;7.88;;;;;;;;;;5100707;27;20047;-82
2023/10/24 07:05:25;;;;;;;12.73;7.85;;;;;;;;;;5100665;27;20042;-82
2023/10/24 07:07:51;;;;;;;12.38;7.32;;;;;;;;;;5117363;27;20415;-79
2023/10/24 07:10:17;;;;;;;11.77;7.63;;;;;;;;;;5100653;27;20088;-80
2023/10/24 07:12:43;;;;;;;8.55;7.20;;;;;;;;;;5117664;27;20072;-81
2023/10/24 07:15:09;;;;;;;10.98;7.40;;;;;;;;;;5117340;27;20042;-86
2023/10/24 07:17:35;;;;;;;7.82;6.15;;;;;;;;;;5117660;27;20126;-84
2023/10/24 07:20:02;;;;;;;10.00;6.55;;;;;;;;;;5100486;27;20043;-82
2023/10/24 07:22:28;;;;;;;8.48;6.93;;;;;;;;;;5100636;27;20399;-82
2023/10/24 07:24:54;;;;;;;8.00;6.90;;;;;;;;;;5100194;27;20092;-86
2023/10/24 07:27:21;;;;;;;8.38;6.38;;;11.40;99.00;;;;;;5100145;27;20051;-80
2023/10/24 07:29:47;;;;;;;10.32;6.82;;;;;;;;;;5100379;27;20519;-83
2023/10/24 07:32:13;;;;;;;9.82;7.13;;;11.50;97.50;;;;;;5100024;27;20047;-80
2023/10/24 07:34:41;;;;;;;11.93;7.10;;;;;;;;;;5100665;27;20031;-84
2023/10/24 07:37:08;;;;;;;12.55;7.18;;;11.50;96.40;;;;;;5100212;27;20043;-83
2023/10/24 07:39:35;;;;;;;8.68;7.00;;;11.50;99.10;;;;;;5066396;27;20051;-84
2023/10/24 07:42:01;;;;;;;9.70;6.55;;;;;;;;;;5117059;27;20499;-85
2023/10/24 07:44:27;;;;;;;9.55;7.95;;;;;;;;;;5100013;27;20035;-80
2023/10/24 07:46:53;;;;;;;9.77;7.75;;;;;;;;;;5099584;27;20043;-84
2023/10/24 07:49:20;;;;;;;9.02;6.95;;;;;;;;;;5117041;27;20039;-79
2023/10/24 07:51:46;;;;;;;9.00;7.47;;;;;;;;;;5099792;27;20043;-81
2023/10/24 07:54:15;;;;;;;13.18;7.97;;;;;;;;;;5135079;27;20043;-81
2023/10/24 07:56:41;;;;;;;10.00;7.15;;;;;;;;;;5116430;27;20096;-78
2023/10/24 07:59:07;;;;;;;9.43;7.13;;;11.60;99.90;;;;;;5099271;27;20081;-78
2023/10/24 08:01:34;;;;;;;13.23;8.50;;;;;;;;;;5099395;27;20122;-78
2023/10/24 08:04:00;;;;;;;9.35;7.05;;;11.40;99.90;;;;;;5099281;27;20499;-83
2023/10/24 08:06:26;;;;;;;8.57;6.68;;;;;;;;;;5116470;27;20053;-81
2023/10/24 08:08:52;;;;;;;18.45;8.05;;;;;;;;;;5099445;27;20085;-77
2023/10/24 08:11:18;;;;;;;16.40;8.20;;;;;;;;;;5099662;27;20572;-78
2023/10/24 08:13:44;;;;;;;10.82;8.00;;;;;;;;;;5116801;27;20052;-78
2023/10/24 08:16:10;;;;;;;13.93;8.07;;;11.20;99.90;;;;;;5101361;27;20054;-79
2023/10/24 08:18:36;;;;;;;11.38;8.05;;;;;;;;;;5118270;27;20119;-82
2023/10/24 08:21:02;;;;;;;11.00;7.80;;;;;;;;;;5117585;27;20050;-83
2023/10/24 08:23:28;;;;;;;12.48;8.07;;;;;;;;;;5099658;27;20047;-84
2023/10/24 08:25:56;;;;;;;11.88;8.52;;;;;;;;;;5099585;27;20035;-82
2023/10/24 08:28:22;;;;;;;14.50;9.20;;;;;;;;;;5099626;27;20082;-82
2023/10/24 08:30:48;;;;;;;12.15;8.35;;;;;;;;;;5116038;27;20065;-82
2023/10/24 08:33:16;;;;;;;14.27;9.50;;;;;;;;;;5116280;27;20039;-82
2023/10/24 08:35:43;;;;;;;11.93;8.93;;;;;;;;;;5115789;27;20043;-84
2023/10/24 08:38:09;;;;;;;14.45;9.20;;;;;;;;;;5115998;27;20047;-85
2023/10/24 08:40:35;;;;;;;13.10;9.82;;;;;;;;;;5115546;27;20090;-85
2023/10/24 08:43:02;;;;;;;14.45;8.55;;;;;;;;;;5115807;27;20062;-84
2023/10/24 08:45:28;;;;;;;11.70;8.75;;;;;;;;;;5115764;27;20035;-82
2023/10/24 08:47:54;;;;;;;12.75;8.55;;;;;;;;;;5115742;27;20042;-82
2023/10/24 08:50:20;;;;;;;14.57;9.02;;;;;;;;;;5098926;27;20054;-83
2023/10/24 08:52:46;;;;;;;13.73;9.05;;;;;;;;;;5098374;27;20043;-86
2023/10/24 08:55:12;;;;;;;12.23;8.65;;;;;;;;;;5098448;27;20122;-85
2023/10/24 08:57:42;;;;;;;19.48;9.93;;;;;;;;;;5115154;27;20084;-86
2023/10/24 09:00:10;;;;;;;13.02;9.52;;;;;;;;;;5115970;27;20184;-86
2023/10/24 09:02:37;;;;;;;13.07;9.60;;;;;;;;;;5133660;27;20412;-84
2023/10/24 09:05:03;;;;;;;13.23;9.18;;;;;;;;;;5115608;27;20051;-84
2023/10/24 09:07:29;;;;;;;13.07;8.55;;;11.30;99.90;;;;;;5115461;27;20039;-85
2023/10/24 09:09:55;;;;;;;12.13;9.10;;;;;;;;;;5081487;27;20492;-86
2023/10/24 09:12:22;;;;;;;11.93;9.02;;;;;;;;;;5098139;27;20075;-86
2023/10/24 09:14:48;;;;;;;14.70;9.48;;;;;;;;;;5115372;27;20527;-86
2023/10/24 09:17:18;;;;;;;11.70;8.30;;;;;;;;;;5098090;27;20095;-84
2023/10/24 09:19:44;;;;;;;14.85;9.93;;;;;;;;;;5098689;27;20506;-83
2023/10/24 09:22:14;;;;;;;13.90;9.18;;;11.80;97.00;;;;;;5114848;27;20050;-85
2023/10/24 09:24:46;;;;;;;14.55;9.63;;;11.50;99.60;;;;;;5096971;28;20043;-84
2023/10/24 09:27:23;;;;;;;13.07;8.30;;;;;;;;;;5097685;27;20051;-84
2023/10/24 09:29:50;;;;;;;11.95;9.27;;;11.50;97.10;;;;;;5098126;27;20039;-85
2023/10/24 09:32:17;;;;;;;14.65;9.90;;;11.40;95.70;;;;;;5097901;27;20043;-82
2023/10/24 09:34:43;;;;;;;13.00;9.10;;;;;;;;;;5097731;27;20290;-84
2023/10/24 09:37:13;;;;;;;14.15;9.48;;;;;;;;;;5097733;27;20043;-84
2023/10/24 09:39:51;;;;;;;12.60;9.35;;;;;;;;;;5114498;27;20055;-83
2023/10/24 09:42:22;;;;;;;14.48;10.63;;;;;;;;;;5114726;28;20460;-83
2023/10/24 09:44:48;;;;;;;14.13;10.10;;;;;;;;;;5114723;28;20047;-86
2023/10/24 09:47:15;;;;;;;12.70;8.98;;;;;;;;;;5114417;28;20043;-86
2023/10/24 09:49:42;;;;;;;13.55;10.30;;;11.50;99.30;;;;;;5097687;28;20104;-85
2023/10/24 09:52:08;;;;;;;16.75;10.20;;;;;;;;;;5133163;28;20043;-86
2023/10/24 09:54:35;;;;;;;13.45;10.55;;;;;;;;;;5132725;28;20483;-83
2023/10/24 09:57:01;;;;;;;15.75;10.75;;;;;;;;;;5114696;28;20088;-82
2023/10/24 09:59:27;;;;;;;15.10;10.50;;;;;;;;;;5114517;28;20126;-85
2023/10/24 10:01:53;;;;;;;14.07;10.93;;;;;;;;;;5133236;28;20070;-84
2023/10/24 10:04:19;;;;;;;13.68;10.27;;;;;;;;;;5114381;28;20039;-83
2023/10/24 10:06:46;;;;;;;16.20;10.68;;;;;;;;;;5097730;28;20495;-83
2023/10/24 10:09:14;;;;;;;16.27;10.82;;;11.50;97.80;;;;;;5114545;28;20698;-82
2023/10/24 10:11:42;;;;;;;17.92;11.07;;;11.60;99.30;;;;;;5114248;28;20514;-85
2023/10/24 10:14:32;;;;;;;13.77;9.77;;;;;;;;;;5097294;28;20123;-82
2023/10/24 10:17:35;;;;;;;16.30;10.75;;;11.60;99.90;;;;;;5097654;28;20395;-83
2023/10/24 10:20:13;;;;;;;16.35;10.57;;;;;;;;;;5114243;28;20111;-81
2023/10/24 10:22:42;;;;;;;15.23;10.18;;;;;;;;;;5114410;28;20509;-77
2023/10/24 10:25:28;;;;;;;13.43;9.68;;;11.50;99.90;;;;;;5097647;28;20391;-82
2023/10/24 10:28:15;;;;;;;16.58;10.63;;;11.50;99.90;;;;;;5132558;28;20126;-80
2023/10/24 10:30:41;;;;;;;14.98;10.40;;;;;;;;;;5114028;28;20052;-81
2023/10/24 10:33:16;;;;;;;15.27;10.43;;;;;;;;;;5132498;28;20043;-81
2023/10/24 10:35:57;;;;;;;14.90;9.93;;;11.70;99.90;;;;;;5097545;28;20151;-82
2023/10/24 10:38:44;;;;;;;15.32;8.95;;;;;;;;;;5117947;27;20049;-78
2023/10/24 10:41:22;;;;;;;13.23;9.50;;;11.40;95.40;;;;;;5100615;27;20519;-78
2023/10/24 10:43:53;;;;;;;14.38;9.48;;;;;;;;;;5101058;27;20047;-81
2023/10/24 10:46:22;;;;;;;13.90;10.48;;;11.60;99.90;;;;;;5101023;27;20436;-81
2023/10/24 10:48:49;;;;;;;14.57;9.43;;;11.50;99.90;;;;;;5136243;27;20220;-80
2023/10/24 10:51:25;;;;;;;15.93;10.00;;;;;;;;;;5136419;27;20103;-81
2023/10/24 10:53:59;;;;;;;11.48;8.73;;;11.60;94.30;;;;;;5117538;27;20086;-81
2023/10/24 10:56:31;;;;;;;15.07;9.35;;;11.50;99.90;;;;;;5100910;27;20065;-81
2023/10/24 10:58:57;;;;;;;13.90;9.40;;;;;;;;;;5100664;27;20047;-81
2023/10/24 11:01:33;;;;;;;18.48;9.85;;;;;;;;;;5117805;27;20388;-85
2023/10/24 11:03:59;;;;;;;12.18;9.15;;;;;;;;;;5135876;27;20449;-84
2023/10/24 11:06:27;;;;;;;13.02;9.88;;;11.50;98.50;;;;;;5135634;27;20075;-85
2023/10/24 11:09:09;;;;;;;15.57;9.75;;;11.60;99.90;;;;;;5117760;27;20083;-83
2023/10/24 11:11:37;;;;;;;15.40;10.63;;;;;;;;;;5117753;27;20043;-85
2023/10/24 11:14:13;;;;;;;22.55;11.18;;;11.70;99.90;;;;;;5100170;27;20375;-85
2023/10/24 11:16:42;;;;;;;14.55;10.35;;;11.70;99.90;;;;;;5117251;27;20523;-85
2023/10/24 11:19:20;;;;;;;17.30;9.75;;;11.70;99.10;;;;;;5135931;27;20043;-84
2023/10/24 11:21:47;;;;;;;15.40;10.60;;;;;;;;;;5136025;27;20043;-84
2023/10/24 11:24:23;;;;;;;14.93;10.45;;;;;;;;;;5117355;27;20039;-83
2023/10/24 11:26:49;;;;;;;14.80;10.45;;;;;;;;;;5117466;27;20460;-85
2023/10/24 11:29:15;;;;;;;14.43;10.52;;;;;;;;;;5099899;27;20081;-85
2023/10/24 11:31:45;;;;;;;14.35;9.73;;;;;;;;;;5100374;27;20047;-85
2023/10/24 11:34:12;;;;;;;17.70;11.93;;;;;;;;;;5100048;27;20097;-85
2023/10/24 11:36:43;;;;;;;16.92;11.15;;;11.80;96.70;;;;;;5100567;27;20043;-85
2023/10/24 11:39:09;;;;;;;14.05;11.45;;;;;;;;;;5116841;27;20050;-81
2023/10/24 11:41:36;;;;;;;16.27;11.32;;;;;;;;;;5134974;27;20050;-82
2023/10/24 11:44:02;;;;;;;14.45;10.52;;;;;;;;;;5116774;27;20082;-82
2023/10/24 11:46:28;;;;;;;14.48;10.65;;;;;;;;;;5116592;27;20051;-82
2023/10/24 11:48:54;;;;;;;15.65;10.23;;;12.00;99.90;;;;;;5115769;27;20129;-84
2023/10/24 11:51:20;;;;;;;13.10;9.85;;;;;;;;;;5116490;27;20531;-85
2023/10/24 11:53:46;;;;;;;16.50;10.60;;;;;;;;;;5099590;27;20043;-84
2023/10/24 11:56:13;;;;;;;17.00;9.95;;;;;;;;;;5116757;27;20043;-84
2023/10/24 11:58:42;;;;;;;15.18;10.73;;;12.10;98.20;;;;;;5099223;27;20055;-84
2023/10/24 12:01:08;;;;;;;15.23;11.38;;;;;;;;;;5116729;27;20043;-82
2023/10/24 12:03:42;;;;;;;17.17;10.15;;;;;;;;;;5099568;27;20043;-81
2023/10/24 12:06:08;;;;;;;13.07;10.23;;;;;;;;;;5082745;27;20251;-78
2023/10/24 12:08:35;;;;;;;15.20;10.50;;;;;;;;;;5116614;27;20100;-83
2023/10/24 12:11:01;;;;;;;16.17;10.13;;;;;;;;;;5098873;27;20043;-82
2023/10/24 12:13:26;;;;;;;13.05;9.20;;;12.10;99.90;;;;;;5082291;27;20047;-81
2023/10/24 12:15:52;;;;;;;13.73;10.63;;;12.20;99.90;;;;;;5098707;27;20175;-77
2023/10/24 12:18:18;;;;;;;13.55;10.07;;;;;;;;;;5099596;27;20047;-83
2023/10/24 12:20:45;;;;;;;13.73;11.30;;;;;;;;;;5082525;27;20039;-77
2023/10/24 12:23:11;;;;;;;15.73;10.63;;;;;;;;;;5082127;27;20047;-80
2023/10/24 12:25:36;;;;;;;13.48;10.70;;;11.80;99.90;;;;;;5082027;27;20544;-77
2023/10/24 12:28:02;;;;;;;14.98;10.48;;;12.20;99.90;;;;;;5115623;27;20051;-81
2023/10/24 12:30:28;;;;;;;13.50;10.60;;;;;;;;;;5115850;27;20039;-79
2023/10/24 12:32:54;;;;;;;20.83;11.10;;;;;;;;;;5115762;27;20074;-81
2023/10/24 12:35:20;;;;;;;12.20;10.05;;;;;;;;;;5134169;27;20060;-77
2023/10/24 12:37:46;;;;;;;13.18;10.32;;;;;;;;;;5117274;27;20047;-80
2023/10/24 12:40:12;;;;;;;13.57;10.18;;;12.10;99.90;;;;;;5099910;27;20051;-80
2023/10/24 12:42:38;;;;;;;15.77;9.65;;;;;;;;;;5116441;27;20407;-81
2023/10/24 12:45:04;;;;;;;18.73;11.25;;;;;;;;;;5116388;27;20126;-82
2023/10/24 12:47:31;;;;;;;14.73;9.80;;;;;;;;;;5099906;27;20051;-81
2023/10/24 12:49:57;;;;;;;12.80;9.73;;;;;;;;;;5098956;27;20064;-82
2023/10/24 12:52:24;;;;;;;13.68;9.95;;;;;;;;;;5098714;27;20039;-82
2023/10/24 12:54:50;;;;;;;13.80;10.07;;;12.30;99.90;;;;;;5098761;27;20075;-80
2023/10/24 12:57:16;;;;;;;14.15;10.48;;;;;;;;;;5133567;27;20047;-79
2023/10/24 12:59:42;;;;;;;12.55;9.70;;;12.10;99.90;;;;;;5115460;27;20043;-81
2023/10/24 13:02:08;;;;;;;14.38;10.60;;;;;;;;;;5081551;27;20043;-83
2023/10/24 13:04:35;;;;;;;13.10;10.73;;;;;;;;;;5098349;27;20457;-82
2023/10/24 13:07:04;;;;;;;12.85;10.52;;;12.20;99.90;;;;;;5115122;27;20096;-81
2023/10/24 13:09:34;;;;;;;13.02;10.32;;;;;;;;;;5115547;27;20046;-81
2023/10/24 13:12:00;;;;;;;19.13;10.32;;;;;;;;;;5098167;27;20053;-83
2023/10/24 13:14:27;;;;;;;13.65;9.32;;;;;;;;;;5115048;27;20050;-82
2023/10/24 13:16:56;;;;;;;14.73;10.25;;;;;;;;;;5098616;27;20079;-83
2023/10/24 13:19:22;;;;;;;13.65;10.27;;;;;;;;;;5133452;27;20118;-82
2023/10/24 13:21:48;;;;;;;16.63;11.52;;;;;;;;;;5114887;27;20050;-81
2023/10/24 13:24:14;;;;;;;15.52;10.30;;;;;;;;;;5098038;27;20043;-80
2023/10/24 13:26:41;;;;;;;12.18;9.88;;;;;;;;;;5097851;27;20051;-79
2023/10/24 13:29:07;;;;;;;13.77;10.45;;;;;;;;;;5114887;27;20127;-79
2023/10/24 13:31:33;;;;;;;14.23;10.70;;;;;;;;;;5133280;27;20046;-78
2023/10/24 13:33:59;;;;;;;15.18;10.43;;;;;;;;;;5133465;27;20054;-80
2023/10/24 13:36:25;;;;;;;11.80;9.68;;;;;;;;;;5114675;27;20036;-79
2023/10/24 13:38:51;;;;;;;12.27;9.60;;;;;;;;;;5097702;27;20491;-83
2023/10/24 13:41:18;;;;;;;11.80;9.57;;;;;;;;;;5097433;27;20058;-85
2023/10/24 13:43:44;;;;;;;15.68;10.07;;;;;;;;;;5098115;28;20062;-82
2023/10/24 13:46:10;;;;;;;13.07;9.95;;;;;;;;;;5132769;27;20460;-82
2023/10/24 13:48:36;;;;;;;12.88;9.85;;;;;;;;;;5132961;27;20082;-83
2023/10/24 13:51:02;;;;;;;11.18;10.02;;;;;;;;;;5097404;28;20043;-83
2023/10/24 13:53:28;;;;;;;13.82;10.20;;;;;;;;;;5097480;28;20054;-82
2023/10/24 13:55:55;;;;;;;13.35;9.82;;;;;;;;;;5114661;28;20130;-82
2023/10/24 13:58:21;;;;;;;17.70;11.15;;;;;;;;;;5114329;28;20495;-84
2023/10/24 14:00:47;;;;;;;12.95;10.63;;;;;;;;;;5114801;28;20071;-79
2023/10/24 14:03:13;;;;;;;11.85;9.50;;;;;;;;;;5097644;28;20186;-83
2023/10/24 14:05:40;;;;;;;15.18;10.18;;;;;;;;;;5114648;28;20065;-82